Flight Track Log - Related Links

Times and Time Zones

All times are in EDT time to prevent confusion due to time zone crossing. See the SWA3321 flight status page for this flight to view local times or setup timezone preferences in your user account.

Time Position Orientation Groundspeed Altitude Reporting Facility
EDT Latitude Longitude Course Direction KTS MPH feet Rate Location/Type
Thu 09:58:51 AM 41.8500 -87.7667 263° West 242 278 3,200  Level Chicago TRACON
Thu 09:59:57 AM 41.8333 -87.8500 255° West 224 258 6,700 3,100 Climbing Chicago TRACON
Thu 10:00:51 AM 41.8167 -87.9333 255° West 271 312 9,400 2,571 Climbing Chicago TRACON
Thu 10:02:03 AM 41.8128 -88.0522 268° West 291 335 12,100 2,060 Climbing Chicago Center
Thu 10:03:05 AM 41.8056 -88.1839 266° West 349 402 14,000 3,194 Climbing Chicago Center
Thu 10:04:00 AM 41.7300 -88.6218 263° West  Level FlightAware Approximate
Thu 10:04:07 AM 41.7892 -88.3169 261° West 369 425 18,700  Level Chicago Center
Thu 10:05:09 AM 41.7761 -88.4508 263° West 308 354 22,900 2,903 Climbing Chicago Center
Thu 10:06:11 AM 41.7672 -88.5703 264° West 319 367 24,700 1,887 Climbing Chicago Center
Thu 10:07:13 AM 41.7606 -88.6922 266° West 330 380 26,800 1,645 Climbing Chicago Center
Thu 10:08:15 AM 41.7514 -88.8156 264° West 334 384 28,100 1,403 Climbing Chicago Center
Thu 10:09:17 AM 41.7442 -88.9467 266° West 349 402 29,700 1,403 Climbing Chicago Center
Thu 10:10:19 AM 41.7331 -89.1114 265° West 370 426 31,000 1,645 Climbing Chicago Center
Thu 10:11:21 AM 41.7247 -89.2500 265° West 376 433 33,100 2,177 Climbing Chicago Center
Thu 10:12:23 AM 41.7156 -89.3781 265° West 349 402 35,500 1,415 Climbing Chicago Center
Thu 10:13:24 AM 41.7064 -89.4975 264° West 329 379 36,000 244 Climbing Chicago Center
Thu 10:14:26 AM 41.6983 -89.6297 265° West 336 387 36,000  Level Chicago Center
Thu 10:15:28 AM 41.6886 -89.7553 264° West 340 391 36,000  Level Chicago Center
Thu 10:16:30 AM 41.6794 -89.8822 265° West 342 394 36,000  Level Chicago Center
Thu 10:17:32 AM 41.6708 -90.0094 265° West 343 395 36,000  Level Chicago Center
Thu 10:18:34 AM 41.6597 -90.1611 264° West 342 394 36,000  Level Chicago Center
Thu 10:19:36 AM 41.6483 -90.2947 264° West 358 412 36,000  Level Chicago Center
Thu 10:20:38 AM 41.6383 -90.4272 264° West 361 415 36,000  Level Chicago Center
Thu 10:21:40 AM 41.6281 -90.5567 264° West 353 406 36,000  Level Chicago Center
Thu 10:22:42 AM 41.6161 -90.6903 263° West 354 407 36,000  Level Chicago Center
Thu 10:23:44 AM 41.6058 -90.8217 264° West 357 411 36,000  Level Chicago Center
Thu 10:24:46 AM 41.5933 -90.9789 264° West 358 412 36,000  Level Chicago Center
Thu 10:25:47 AM 41.5822 -91.1103 264° West 360 414 36,000  Level Chicago Center
Thu 10:26:49 AM 41.5706 -91.2431 263° West 361 415 36,000  Level Chicago Center
Thu 10:27:51 AM 41.5597 -91.3778 264° West 365 420 36,000  Level Chicago Center
Thu 10:28:53 AM 41.5475 -91.5117 263° West 366 421 36,000  Level Chicago Center
Thu 10:29:55 AM 41.5353 -91.6481 263° West 371 427 36,000  Level Chicago Center
Thu 10:30:57 AM 41.5197 -91.8119 263° West 373 429 36,000 194 Level Chicago Center
Thu 10:31:59 AM 41.5072 -91.9556 263° West 382 440 36,400 726 Climbing Chicago Center
Thu 10:33:01 AM 41.4936 -92.1025 263° West 393 452 37,500 774 Climbing Chicago Center
Thu 10:34:03 AM 41.4794 -92.2439 262° West 392 451 38,000 244 Climbing Chicago Center
Thu 10:35:04 AM 41.4650 -92.4011 263° West 397 457 38,000  Level Chicago Center
Thu 10:36:06 AM 41.4514 -92.5472 263° West 399 459 38,000  Level Chicago Center
Thu 10:36:56 AM 41.4394 -92.6667 262° West 401 461 38,000  Level Minneapolis Center
Thu 10:37:57 AM 41.4256 -92.8117 263° West 401 461 38,000  Level Minneapolis Center
Thu 10:38:59 AM 41.4075 -92.9847 262° West 397 457 38,000  Level Minneapolis Center
Thu 10:40:00 AM 41.3931 -93.1297 262° West 398 458 38,000  Level Minneapolis Center
Thu 10:41:02 AM 41.3775 -93.2786 262° West 405 466 38,000  Level Minneapolis Center
Thu 10:42:04 AM 41.3606 -93.4281 261° West 411 473 38,000  Level Minneapolis Center
Thu 10:43:05 AM 41.3467 -93.5781 263° West 412 474 38,000  Level Minneapolis Center
Thu 10:44:07 AM 41.3297 -93.7314 262° West 418 481 38,000  Level Minneapolis Center
Thu 10:45:08 AM 41.3092 -93.9172 262° West 425 489 38,000  Level Minneapolis Center
Thu 10:46:10 AM 41.2928 -94.0719 262° West 426 490 38,000  Level Minneapolis Center
Thu 10:47:12 AM 41.2758 -94.2214 261° West 426 490 38,000  Level Minneapolis Center
Thu 10:48:13 AM 41.2581 -94.3772 261° West 427 491 38,000  Level Minneapolis Center
Thu 10:49:15 AM 41.2414 -94.5325 262° West 425 489 38,000  Level Minneapolis Center
Thu 10:50:17 AM 41.2192 -94.7200 261° West 426 490 38,000  Level Minneapolis Center
Thu 10:51:18 AM 41.2000 -94.8769 261° West 428 493 38,000  Level Minneapolis Center
Thu 10:52:20 AM 41.1808 -95.0336 261° West 429 494 38,000  Level Minneapolis Center
Thu 10:53:22 AM 41.1628 -95.1917 261° West 432 497 38,000  Level Minneapolis Center
Thu 10:54:36 AM 41.1428 -95.3478 260° West 430 495 38,000  Level Minneapolis Center
Thu 10:55:38 AM 41.1197 -95.5356 261° West 430 495 38,000  Level Minneapolis Center
Thu 10:56:39 AM 41.0994 -95.6911 260° West 427 491 38,000  Level Minneapolis Center
Thu 10:57:41 AM 41.0800 -95.8489 261° West 428 493 38,000  Level Minneapolis Center
Thu 10:58:43 AM 41.0608 -96.0067 261° West 428 493 38,000  Level Minneapolis Center
Thu 10:59:44 AM 41.0400 -96.1636 260° West 429 494 38,000  Level Minneapolis Center
Thu 11:00:46 AM 41.0156 -96.3522 260° West 430 495 38,000  Level Minneapolis Center
Thu 11:01:48 AM 40.9942 -96.5086 260° West 430 495 38,000  Level Minneapolis Center
Thu 11:02:49 AM 40.9728 -96.6669 260° West 433 498 38,000  Level Minneapolis Center
Thu 11:03:51 AM 40.9519 -96.8228 260° West 431 496 38,000  Level Minneapolis Center
Thu 11:04:53 AM 40.9300 -96.9797 260° West 433 498 38,000  Level Minneapolis Center
Thu 11:05:54 AM 40.9086 -97.1378 260° West 435 501 38,000  Level Minneapolis Center
Thu 11:06:56 AM 40.8878 -97.2925 260° West 431 496 38,000  Level Minneapolis Center
Thu 11:07:58 AM 40.8644 -97.4517 259° West 426 490 38,000  Level Minneapolis Center
Thu 11:08:59 AM 40.8436 -97.6064 260° West 427 491 38,000  Level Minneapolis Center
Thu 11:10:01 AM 40.8258 -97.7289 259° West 424 488 38,000  Level Minneapolis Center
Thu 11:11:03 AM 40.7931 -97.9439 259° West 424 488 38,000  Level Minneapolis Center
Thu 11:12:04 AM 40.7706 -98.0992 259° West 428 493 38,000  Level Minneapolis Center
Thu 11:13:06 AM 40.7472 -98.2561 259° West 431 496 38,000  Level Minneapolis Center
Thu 11:14:07 AM 40.7250 -98.4122 259° West 431 496 38,000  Level Minneapolis Center
Thu 11:15:09 AM 40.7006 -98.5675 258° West 430 495 38,000  Level Minneapolis Center
Thu 11:16:10 AM 40.6769 -98.7211 259° West 427 491 38,000  Level Minneapolis Center
Thu 11:17:12 AM 40.6536 -98.8753 259° West 425 489 38,000  Level Minneapolis Center
Thu 11:18:13 AM 40.6300 -99.0283 259° West 424 488 38,000  Level Minneapolis Center
Thu 11:19:15 AM 40.6058 -99.1811 258° West 424 488 38,000  Level Minneapolis Center
Thu 11:20:16 AM 40.5814 -99.3342 258° West 425 489 38,000  Level Minneapolis Center
Thu 11:21:18 AM 40.5567 -99.4878 258° West 427 491 38,000  Level Minneapolis Center
Thu 11:22:19 AM 40.5322 -99.6414 258° West 427 491 38,000  Level Minneapolis Center
Thu 11:23:21 AM 40.5028 -99.8200 258° West 419 482 38,000  Level Minneapolis Center
Thu 11:24:22 AM 40.4783 -99.9706 258° West 420 483 38,000  Level Minneapolis Center
Thu 11:25:24 AM 40.4533 -100.1197 258° West 419 482 38,000  Level Minneapolis Center
Thu 11:26:25 AM 40.4289 -100.2719 258° West 421 484 38,000  Level Minneapolis Center
Thu 11:26:40 AM 40.4242 -100.2944 255° West 421 484 38,000  Level Denver Center
Thu 11:27:42 AM 40.3953 -100.4628 257° West 422 486 38,000  Level Denver Center
Thu 11:28:44 AM 40.3714 -100.6058 258° West 417 480 38,000  Level Denver Center
Thu 11:29:47 AM 40.3422 -100.7711 257° West 415 478 38,000  Level Denver Center
Thu 11:30:49 AM 40.3181 -100.9106 257° West 411 473 38,000  Level Denver Center
Thu 11:31:51 AM 40.2883 -101.0756 257° West 413 475 38,000  Level Denver Center
Thu 11:32:53 AM 40.2644 -101.2172 258° West 415 478 38,000  Level Denver Center
Thu 11:33:55 AM 40.2356 -101.3828 257° West 418 481 38,000  Level Denver Center
Thu 11:34:57 AM 40.2097 -101.5236 257° West 416 479 38,000  Level Denver Center
Thu 11:35:59 AM 40.1853 -101.6661 257° West 417 480 38,000  Level Denver Center
Thu 11:37:01 AM 40.1553 -101.8281 256° West 411 473 38,000  Level Denver Center
Thu 11:38:03 AM 40.1300 -101.9653 256° West 406 467 38,000  Level Denver Center
Thu 11:39:05 AM 40.0989 -102.1231 256° West 402 463 38,000  Level Denver Center
Thu 11:40:07 AM 40.0742 -102.2603 257° West 405 466 38,000  Level Denver Center
Thu 11:41:09 AM 40.0428 -102.4192 256° West 407 468 38,000  Level Denver Center
Thu 11:42:11 AM 40.0164 -102.5569 256° West 409 471 38,000  Level Denver Center
Thu 11:43:13 AM 39.9861 -102.7164 256° West 412 474 38,000  Level Denver Center
Thu 11:44:15 AM 39.9589 -102.8642 257° West 415 478 38,000  Level Denver Center
Thu 11:45:17 AM 39.9300 -103.0111 256° West 417 480 38,000  Level Denver Center
Thu 11:46:19 AM 39.9006 -103.1581 255° West 417 480 38,000  Level Denver Center
Thu 11:47:22 AM 39.8714 -103.3056 256° West 418 481 38,000  Level Denver Center
Thu 11:48:24 AM 39.8381 -103.4772 256° West 418 481 38,000  Level Denver Center
Thu 11:49:26 AM 39.8089 -103.6239 256° West 415 478 38,000  Level Denver Center
Thu 11:50:28 AM 39.7792 -103.7686 255° West 414 476 38,000  Level Denver Center
Thu 11:51:30 AM 39.7503 -103.9150 256° West 409 471 38,000  Level Denver Center
Thu 11:52:32 AM 39.7211 -104.0572 255° West 404 465 38,000  Level Denver Center
Thu 11:53:34 AM 39.6917 -104.2011 255° West 408 470 38,000  Level Denver Center
Thu 11:54:36 AM 39.6619 -104.3456 255° West 409 471 38,000  Level Denver Center
Thu 11:55:38 AM 39.6267 -104.5147 255° West 413 475 38,000  Level Denver Center
Thu 11:56:40 AM 39.5956 -104.6611 255° West 417 480 38,000  Level Denver Center
Thu 11:57:42 AM 39.5667 -104.7917 254° West 412 474 38,000  Level Denver Center
Thu 11:58:44 AM 39.5367 -104.9358 255° West 410 472 38,000  Level Denver Center
Thu 11:59:46 AM 39.4994 -105.1069 254° West 419 482 38,000  Level Denver Center
Thu 12:00:48 PM 39.4678 -105.2522 254° West 415 478 38,000  Level Denver Center
Thu 12:01:50 PM 39.4369 -105.3956 254° West 410 472 38,000  Level Denver Center
Thu 12:02:53 PM 39.4053 -105.5431 255° West 417 480 38,000  Level Denver Center
Thu 12:03:55 PM 39.3744 -105.6856 254° West 410 472 38,000  Level Denver Center
Thu 12:04:57 PM 39.3419 -105.8300 254° West 413 475 38,000  Level Denver Center
Thu 12:05:59 PM 39.3106 -105.9739 254° West 414 476 38,000  Level Denver Center
Thu 12:07:01 PM 39.2711 -106.1403 253° West 410 472 38,000  Level Denver Center
Thu 12:08:03 PM 39.2442 -106.2769 256° West 412 474 38,000  Level Denver Center
Thu 12:09:05 PM 39.2061 -106.4353 253° West 412 474 38,000  Level Denver Center
Thu 12:10:07 PM 39.1764 -106.5703 254° West 409 471 38,000  Level Denver Center
Thu 12:11:09 PM 39.1442 -106.7061 253° West 411 473 38,000  Level Denver Center
Thu 12:12:11 PM 39.1069 -106.8656 253° West 414 476 38,000  Level Denver Center
Thu 12:13:13 PM 39.0750 -107.0014 253° West 414 476 38,000  Level Denver Center
Thu 12:14:55 PM 39.0178 -107.2461 253° West 410 472 38,000  Level Salt Lake Center
Thu 12:15:17 PM 39.0056 -107.2933 252° West 416 479 38,000  Level Denver Center
Thu 12:16:19 PM 38.9678 -107.4494 253° West 409 471 38,000  Level Denver Center
Thu 12:17:21 PM 38.9356 -107.5833 253° West 411 473 38,000  Level Denver Center
Thu 12:18:23 PM 38.8994 -107.7392 253° West 408 470 38,000  Level Denver Center
Thu 12:19:25 PM 38.8675 -107.8719 253° West 407 468 38,000  Level Denver Center
Thu 12:20:28 PM 38.8297 -108.0281 253° West 408 470 38,000  Level Denver Center
Thu 12:21:30 PM 38.7978 -108.1592 253° West 402 463 38,000  Level Denver Center
Thu 12:22:32 PM 38.7642 -108.2919 252° West 407 468 38,000  Level Denver Center
Thu 12:23:34 PM 38.7267 -108.4469 253° West 408 470 38,000  Level Denver Center
Thu 12:24:36 PM 38.6942 -108.5783 252° West 404 465 38,000  Level Denver Center
Thu 12:26:14 PM 38.6325 -108.8172 252° West 403 464 38,000  Level Salt Lake Center
Thu 12:26:40 PM 38.6219 -108.8606 253° West 401 461 38,000  Level Denver Center
Thu 12:27:42 PM 38.5831 -109.0139 252° West 402 463 38,000  Level Denver Center
Thu 12:28:44 PM 38.5503 -109.1439 252° West 402 463 38,000  Level Denver Center
Thu 12:29:46 PM 38.5111 -109.2975 252° West 407 468 38,000  Level Denver Center
Thu 12:30:48 PM 38.4772 -109.4283 252° West 405 466 38,000  Level Denver Center
Thu 12:31:50 PM 38.4381 -109.5792 252° West 402 463 38,000  Level Denver Center
Thu 12:32:52 PM 38.4039 -109.7083 251° West 403 464 38,000  Level Denver Center
Thu 12:33:54 PM 38.3694 -109.8364 251° West 400 460 38,000  Level Denver Center
Thu 12:34:56 PM 38.3311 -109.9858 252° West 395 455 38,000  Level Denver Center
Thu 12:35:58 PM 38.2914 -110.1106 248° West 396 456 38,000 -221 Level Denver Center
Thu 12:37:12 PM 38.2342 -110.2525 243° Southwest 405 466 37,500 -745 Descending Denver Center
Thu 12:38:15 PM 38.1675 -110.4125 242° Southwest 401 461 36,300 -720 Descending Denver Center
Thu 12:39:17 PM 38.1217 -110.5278 243° Southwest 384 442 36,000 -145 Descending Denver Center
Thu 12:40:19 PM 38.0661 -110.6625 242° Southwest 386 444 36,000  Level Denver Center
Thu 12:41:21 PM 38.0175 -110.7772 242° Southwest 386 444 36,000  Level Denver Center
Thu 12:42:23 PM 37.9636 -110.9069 242° Southwest 386 444 36,000 -441 Level Denver Center
Thu 12:43:37 PM 37.9139 -111.0283 243° Southwest 389 448 35,000 -1,007 Descending Denver Center
Thu 12:44:40 PM 37.8536 -111.1719 242° Southwest 387 445 33,700 -1,154 Descending Denver Center
Thu 12:45:47 PM 37.7950 -111.3131 242° Southwest 380 437 32,500 -797 Descending Salt Lake Center
Thu 12:46:48 PM 37.7464 -111.4294 242° Southwest 376 433 32,000 -244 Descending Salt Lake Center
Thu 12:47:50 PM 37.6953 -111.5489 242° Southwest 384 442 32,000  Level Salt Lake Center
Thu 12:48:51 PM 37.6450 -111.6656 241° Southwest 381 438 32,000  Level Salt Lake Center
Thu 12:49:53 PM 37.5956 -111.7806 242° Southwest 376 433 32,000  Level Salt Lake Center
Thu 12:50:15 PM 37.5756 -111.8264 241° Southwest 374 430 32,000  Level Denver Center
Thu 12:50:55 PM 37.5467 -111.8967 243° Southwest 375 432 32,000  Level Salt Lake Center
Thu 12:51:56 PM 37.4939 -112.0181 241° Southwest 392 451 32,000  Level Salt Lake Center
Thu 12:52:58 PM 37.4300 -112.1656 241° Southwest 398 458 32,000  Level Salt Lake Center
Thu 12:53:59 PM 37.3775 -112.2881 242° Southwest 398 458 32,000 -244 Level Salt Lake Center
Thu 12:55:01 PM 37.3250 -112.4089 241° Southwest 394 453 31,500 -726 Descending Salt Lake Center
Thu 12:56:03 PM 37.2708 -112.5314 241° Southwest 396 456 30,500 -976 Descending Salt Lake Center
Thu 12:57:04 PM 37.2161 -112.6578 241° Southwest 402 463 29,500 -927 Descending Salt Lake Center
Thu 12:58:06 PM 37.1606 -112.7842 241° Southwest 406 467 28,600 -732 Descending Salt Lake Center
Thu 12:59:07 PM 37.1047 -112.9111 241° Southwest 411 473 28,000 -293 Descending Salt Lake Center
Thu 01:00:09 PM 37.0483 -113.0389 241° Southwest 416 479 28,000  Level Salt Lake Center
Thu 01:01:11 PM 36.9922 -113.1650 241° Southwest 415 478 28,000 -341 Level Salt Lake Center
Thu 01:02:12 PM 36.9358 -113.2911 241° Southwest 415 478 27,300 -1,317 Descending Salt Lake Center
Thu 01:03:14 PM 36.8703 -113.4378 241° Southwest 406 467 25,300 -1,854 Descending Salt Lake Center
Thu 01:04:15 PM 36.8161 -113.5569 240° Southwest 397 457 23,500 -2,091 Descending Salt Lake Center
Thu 01:05:26 PM 36.7542 -113.6931 240° Southwest 381 438 20,700 -1,985 Descending Los Angeles Center
Thu 01:06:28 PM 36.7044 -113.8039 241° Southwest 368 423 19,100 -1,258 Descending Los Angeles Center
Thu 01:07:30 PM 36.6544 -113.9147 241° Southwest 368 423 18,100 -968 Descending Los Angeles Center
Thu 01:08:32 PM 36.6042 -114.0222 240° Southwest 360 414 17,100 -960 Descending Los Angeles Center
Thu 01:09:35 PM 36.5561 -114.1314 241° Southwest 361 415 16,100 -1,018 Descending Los Angeles Center
Thu 01:10:24 PM 36.5106 -114.2367 242° Southwest 364 419 15,200 -1,326 Descending Los Angeles Center
Thu 01:11:01 PM 36.4794 -114.3008 239° Southwest 350 403 14,200 -1,653 Descending Los Angeles Center
Thu 01:12:02 PM 36.4308 -114.4033 240° Southwest 343 395 12,500 -1,212 Descending Los Angeles Center
Thu 01:12:40 PM 36.4128 -114.4403 239° Southwest 345 397 12,200 -448 Descending Los Angeles Center
Thu 01:13:09 PM 36.3744 -114.4894 226° Southwest 301 346 12,000 -95 Descending Los Angeles Center
Thu 01:13:43 PM 36.3303 -114.4956 186° South 319 367 12,100 -436 Climbing Los Angeles Center
Thu 01:14:04 PM 36.2983 -114.5072 196° South 303 349 11,600 -1,065 Descending Los Angeles Center
Thu 01:14:45 PM 36.2519 -114.5289 201° Southwest 304 350 11,000 -1,082 Descending Los Angeles Center
Thu 01:15:05 PM 36.2289 -114.5656 232° Southwest 288 331 10,500 -1,161 Descending Los Angeles Center
Thu 01:15:47 PM 36.1978 -114.6014 223° Southwest 288 331 9,800 -1,377 Descending Los Angeles Center
Thu 01:16:06 PM 36.1736 -114.6375 230° Southwest 283 326 9,100 -1,161 Descending Los Angeles Center
Thu 01:16:49 PM 36.1622 -114.6822 253° West 279 321 8,600 -787 Descending Los Angeles Center
Thu 01:17:07 PM 36.1539 -114.7242 256° West 262 302 8,300 -484 Descending Los Angeles Center
Thu 01:17:51 PM 36.1436 -114.7831 258° West 254 292 8,100 -290 Descending Los Angeles Center
Thu 01:18:09 PM 36.1431 -114.8025 268° West 225 259 8,000 -677 Descending Los Angeles Center
Thu 01:18:53 PM 36.1383 -114.8611 264° West 235 270 7,400 -896 Descending Los Angeles Center
Thu 01:19:16 PM 36.1375 -114.8950 268° West 227 261 7,000 -871 Descending Los Angeles Center
Thu 01:19:55 PM 36.1336 -114.9378 264° West 226 260 6,500 -764 Descending Los Angeles Center
Thu 01:20:11 PM 36.1322 -114.9606 266° West 219 252 6,300 -857 Descending Los Angeles Center
Thu 01:20:58 PM 36.1347 -115.0072 274° West 210 242 5,600 -991 Descending Los Angeles Center
Thu 01:22:00 PM 36.1383 -115.0647 274° West 182 209 4,500 -1,113 Descending Los Angeles Center
Thu 01:23:02 PM 36.1356 -115.1153 266° West 164 189 3,300 -1,200 Descending Los Angeles Center
Thu 01:23:20 PM 36.1258 -115.1386 243° Southwest 145 167 2,900 -871 Descending Los Angeles Center
Thu 01:24:04 PM 36.1078 -115.1500 207° Southwest 154 177 2,400 -682 Descending Los Angeles Center
Thu 01:26:00 PM 36.0801 -115.1523 219° Southwest  Level Estimated

Login

Don't have an account? Register now (free) for customized features, flight alerts, and more!